Time;durP1;ratioP1;P1;durP2;ratioP2;P2;SDS_P1;SDS_P2;PMS_P1;PMS_P2;Temp;Humidity;BMP_temperature;BMP_pressure;BME280_temperature;BME280_humidity;BME280_pressure;Samples;Min_cycle;Max_cycle;Signal;HPM_P1;HPM_P2
2023/05/15 00:02:07;;;;;;;7.90;3.63;;;11.70;37.30;;;;;;4428964;28;657711;-71
2023/05/15 00:04:54;;;;;;;7.70;3.40;;;11.60;26.30;;;;;;4441055;28;657490;-73
2023/05/15 00:07:41;;;;;;;6.07;3.90;;;11.60;99.90;;;;;;4423886;28;657928;-71
2023/05/15 00:10:28;;;;;;;6.87;3.60;;;11.60;99.90;;;;;;4430982;28;658231;-71
2023/05/15 00:13:17;;;;;;;3.93;3.43;;;11.60;99.90;;;;;;4419502;28;657320;-70
2023/05/15 00:16:04;;;;;;;6.20;3.90;;;11.60;99.90;;;;;;4440368;28;657469;-71
2023/05/15 00:18:53;;;;;;;5.33;3.50;;;11.60;99.90;;;;;;4419833;28;657585;-70
2023/05/15 00:21:40;;;;;;;4.60;3.60;;;11.60;99.90;;;;;;4421637;28;658035;-71
2023/05/15 00:24:27;;;;;;;8.43;3.67;;;11.60;99.90;;;;;;4445915;28;657939;-70
2023/05/15 00:27:15;;;;;;;6.27;3.93;;;11.60;1.00;;;;;;4435314;28;660983;-71
2023/05/15 00:30:02;;;;;;;7.23;3.60;;;11.60;1.00;;;;;;4444284;28;657176;-70
2023/05/15 00:32:50;;;;;;;5.70;4.10;;;11.60;1.00;;;;;;4436312;28;656535;-70
2023/05/15 00:35:38;;;;;;;6.23;3.97;;;11.50;1.00;;;;;;4421331;28;657768;-71
2023/05/15 00:38:25;;;;;;;9.20;4.40;;;11.50;1.00;;;;;;4423791;28;656915;-71
2023/05/15 00:41:13;;;;;;;6.40;4.47;;;11.50;98.50;;;;;;4441953;28;658632;-70
2023/05/15 00:44:00;;;;;;;7.10;3.70;;;11.50;99.90;;;;;;4421932;28;657840;-72
2023/05/15 00:46:48;;;;;;;12.23;4.60;;;11.40;99.90;;;;;;4435879;28;659262;-71
2023/05/15 00:49:36;;;;;;;5.97;4.00;;;11.50;99.90;;;;;;4428331;28;658746;-71
2023/05/15 00:52:25;;;;;;;8.37;4.47;;;11.40;99.90;;;;;;4440652;28;658488;-70
2023/05/15 00:55:12;;;;;;;7.63;4.40;;;11.40;99.90;;;;;;4420848;28;658288;-70
2023/05/15 00:57:59;;;;;;;9.50;3.80;;;11.50;99.90;;;;;;4444790;28;657363;-71
2023/05/15 01:00:46;;;;;;;6.82;4.32;;;11.50;99.90;;;;;;4416800;28;658188;-71
2023/05/15 01:03:33;;;;;;;5.73;3.93;;;11.50;1.00;;;;;;4441646;28;658019;-71
2023/05/15 01:06:21;;;;;;;5.77;4.60;;;11.40;99.90;;;;;;4420566;28;656341;-71
2023/05/15 01:09:09;;;;;;;7.40;5.07;;;11.40;99.90;;;;;;4444382;28;657898;-71
2023/05/15 01:11:56;;;;;;;4.90;4.00;;;11.40;99.90;;;;;;4417433;28;659009;-70
2023/05/15 01:14:44;;;;;;;8.47;4.33;;;11.40;99.90;;;;;;4438475;28;658032;-71
2023/05/15 01:17:31;;;;;;;8.30;4.70;;;11.40;99.90;;;;;;4424034;28;657866;-71
2023/05/15 01:20:18;;;;;;;6.20;4.40;;;11.40;99.90;;;;;;4434175;28;659058;-71
2023/05/15 01:23:10;;;;;;;5.70;4.17;;;11.40;99.90;;;;;;4419725;28;657604;-72
2023/05/15 01:26:22;;;;;;;6.23;4.90;;;11.40;99.90;;;;;;4419436;28;659589;-71
2023/05/15 01:29:12;;;;;;;8.37;4.60;;;11.40;99.90;;;;;;4418396;28;658197;-71
2023/05/15 01:32:03;;;;;;;6.30;4.88;;;11.40;99.90;;;;;;4415760;28;657466;-71
2023/05/15 01:34:53;;;;;;;7.77;4.77;;;11.40;99.90;;;;;;4428239;28;657430;-72
2023/05/15 01:37:44;;;;;;;7.50;4.70;;;11.40;99.90;;;;;;4422183;28;657522;-72
2023/05/15 01:40:31;;;;;;;8.03;4.83;;;11.40;99.90;;;;;;4422008;28;657495;-72
2023/05/15 01:43:19;;;;;;;11.83;4.63;;;11.40;99.90;;;;;;4447890;28;658233;-71
2023/05/15 01:46:08;;;;;;;6.13;5.03;;;11.50;99.90;;;;;;4420396;28;658294;-71
2023/05/15 01:48:56;;;;;;;8.67;5.43;;;11.40;99.90;;;;;;4420711;28;657538;-71
2023/05/15 01:51:43;;;;;;;8.23;5.77;;;11.40;99.90;;;;;;4433718;28;658474;-71
2023/05/15 01:54:30;;;;;;;8.27;5.20;;;11.40;99.90;;;;;;4417171;28;657442;-71
2023/05/15 01:57:17;;;;;;;8.70;5.00;;;11.40;99.90;;;;;;4285387;28;658905;-72
2023/05/15 02:00:07;;;;;;;6.53;5.00;;;11.40;99.90;;;;;;4258027;28;657666;-72
2023/05/15 02:02:55;;;;;;;8.87;5.60;;;11.40;99.90;;;;;;4359473;28;657744;-70
2023/05/15 02:05:43;;;;;;;8.63;5.30;;;11.40;99.90;;;;;;4413505;28;658113;-71
2023/05/15 02:08:30;;;;;;;8.13;5.70;;;11.40;99.90;;;;;;4435530;28;657615;-71
2023/05/15 02:11:18;;;;;;;6.33;4.90;;;11.40;99.90;;;;;;4438279;28;658396;-70
2023/05/15 02:14:05;;;;;;;8.60;5.93;;;11.40;99.90;;;;;;4431845;28;657585;-71
2023/05/15 02:16:52;;;;;;;8.67;4.93;;;11.40;99.90;;;;;;4445180;28;658490;-70
2023/05/15 02:19:42;;;;;;;6.77;5.00;;;11.40;99.90;;;;;;4437094;28;657726;-71
2023/05/15 02:22:29;;;;;;;8.27;5.37;;;11.40;99.90;;;;;;4439199;28;657656;-70
2023/05/15 02:25:16;;;;;;;9.07;5.27;;;11.40;99.90;;;;;;4423866;28;657688;-71
2023/05/15 02:28:03;;;;;;;7.75;5.70;;;11.40;99.90;;;;;;4435011;28;658483;-71
2023/05/15 02:30:55;;;;;;;7.77;5.23;;;11.40;99.90;;;;;;4416167;28;657581;-71
2023/05/15 02:33:45;;;;;;;7.07;5.40;;;11.30;99.90;;;;;;4416068;28;659344;-71
2023/05/15 02:36:34;;;;;;;6.53;5.27;;;11.30;99.90;;;;;;4414817;28;657864;-71
2023/05/15 02:39:22;;;;;;;7.47;5.20;;;11.30;99.90;;;;;;4419167;28;657488;-71
2023/05/15 02:42:10;;;;;;;6.70;5.30;;;11.40;99.90;;;;;;4444020;28;658461;-71
2023/05/15 02:44:57;;;;;;;10.93;5.33;;;11.40;99.90;;;;;;4418528;28;658701;-71
2023/05/15 02:47:44;;;;;;;7.43;5.57;;;11.40;99.90;;;;;;4433008;28;658571;-70
2023/05/15 02:50:31;;;;;;;6.43;5.13;;;11.40;99.90;;;;;;4420411;28;657501;-70
2023/05/15 02:53:20;;;;;;;7.13;5.67;;;11.40;99.90;;;;;;4440431;28;657968;-71
2023/05/15 02:56:08;;;;;;;8.57;5.70;;;11.40;99.90;;;;;;4416278;28;659341;-70
2023/05/15 02:58:55;;;;;;;8.33;6.50;;;11.40;99.90;;;;;;4432861;28;658198;-71
2023/05/15 03:01:42;;;;;;;11.20;6.07;;;11.40;99.90;;;;;;4443037;28;658969;-71
2023/05/15 03:04:30;;;;;;;9.77;6.43;;;11.40;99.90;;;;;;4439398;28;658433;-71
2023/05/15 03:07:17;;;;;;;13.17;5.50;;;11.40;99.90;;;;;;4421227;28;658249;-71
2023/05/15 03:10:06;;;;;;;8.65;5.35;;;11.40;99.90;;;;;;4439762;28;658658;-70
2023/05/15 03:12:57;;;;;;;6.73;5.03;;;11.40;99.90;;;;;;4413230;28;658089;-71
2023/05/15 03:15:44;;;;;;;7.27;4.87;;;11.40;99.90;;;;;;4408935;28;657615;-70
2023/05/15 03:18:31;;;;;;;6.23;4.67;;;11.40;99.90;;;;;;4422343;28;658170;-70
2023/05/15 03:21:18;;;;;;;6.53;4.73;;;11.40;99.90;;;;;;4439911;28;657786;-71
2023/05/15 03:24:06;;;;;;;5.57;4.43;;;11.40;99.90;;;;;;4421513;28;657803;-71
2023/05/15 03:26:55;;;;;;;5.53;4.60;;;11.40;99.90;;;;;;4440156;28;657728;-71
2023/05/15 03:29:42;;;;;;;6.23;4.47;;;11.40;99.90;;;;;;4413327;28;657991;-71
2023/05/15 03:32:29;;;;;;;7.13;5.00;;;11.50;99.90;;;;;;4442332;28;658183;-70
2023/05/15 03:35:17;;;;;;;5.00;4.50;;;11.40;99.90;;;;;;4422835;28;657738;-71
2023/05/15 03:38:04;;;;;;;6.13;4.83;;;11.40;99.90;;;;;;4440904;28;657362;-71
2023/05/15 03:40:51;;;;;;;5.93;4.35;;;11.40;99.90;;;;;;4420363;28;658006;-71
2023/05/15 03:43:40;;;;;;;5.87;4.20;;;11.40;99.90;;;;;;4432441;28;658257;-70
2023/05/15 03:46:27;;;;;;;6.07;4.37;;;11.50;99.90;;;;;;4414299;28;658930;-71
2023/05/15 03:49:14;;;;;;;5.97;4.30;;;11.50;99.90;;;;;;4442318;28;657881;-70
2023/05/15 03:52:01;;;;;;;7.07;4.20;;;11.50;99.90;;;;;;4421547;28;657537;-70
2023/05/15 03:54:49;;;;;;;4.43;3.87;;;11.50;99.90;;;;;;4435726;28;658830;-71
2023/05/15 03:57:36;;;;;;;5.70;4.00;;;11.50;99.90;;;;;;4423496;28;658013;-70
2023/05/15 04:00:25;;;;;;;5.90;4.57;;;11.50;99.90;;;;;;4435149;28;658020;-71
2023/05/15 04:03:12;;;;;;;8.17;4.37;;;11.50;99.90;;;;;;4415761;28;658218;-71
2023/05/15 04:05:59;;;;;;;6.67;4.90;;;11.60;99.90;;;;;;4440796;28;657445;-71
2023/05/15 04:08:46;;;;;;;5.30;4.40;;;11.50;99.90;;;;;;4419733;28;658064;-70
2023/05/15 04:11:34;;;;;;;6.23;4.50;;;11.60;99.90;;;;;;4440968;28;658558;-71
2023/05/15 04:14:21;;;;;;;5.70;4.27;;;11.60;99.90;;;;;;4422403;28;658408;-70
2023/05/15 04:17:10;;;;;;;5.43;4.20;;;11.60;99.90;;;;;;4433624;28;658373;-70
2023/05/15 04:19:57;;;;;;;4.70;3.80;;;11.60;99.90;;;;;;4415245;28;658277;-71
2023/05/15 04:22:44;;;;;;;4.67;3.80;;;11.70;99.90;;;;;;4438890;28;657552;-71
2023/05/15 04:25:32;;;;;;;5.13;3.63;;;11.70;99.90;;;;;;4422606;28;657969;-71
2023/05/15 04:28:20;;;;;;;4.57;3.60;;;11.70;99.90;;;;;;4441484;28;657435;-71
2023/05/15 04:31:07;;;;;;;4.33;3.83;;;11.70;99.90;;;;;;4417556;28;658274;-71
2023/05/15 04:33:55;;;;;;;4.73;3.80;;;11.70;99.90;;;;;;4432578;28;658267;-71
2023/05/15 04:36:43;;;;;;;6.80;4.10;;;11.70;99.90;;;;;;4412828;28;659171;-71
2023/05/15 04:39:30;;;;;;;5.17;4.10;;;11.80;99.90;;;;;;4431216;28;657676;-71
2023/05/15 04:42:18;;;;;;;5.27;3.93;;;11.80;99.90;;;;;;4441922;28;658830;-71
2023/05/15 04:45:06;;;;;;;4.60;3.87;;;11.90;99.90;;;;;;4427064;28;657723;-71
2023/05/15 04:47:54;;;;;;;6.50;4.23;;;12.00;99.90;;;;;;4440415;28;658287;-71
2023/05/15 04:50:42;;;;;;;4.73;4.00;;;12.20;99.90;;;;;;4413343;28;657915;-71
2023/05/15 04:53:29;;;;;;;5.72;4.30;;;12.40;99.90;;;;;;4441042;28;657121;-71
2023/05/15 04:56:17;;;;;;;5.07;3.87;;;12.50;99.90;;;;;;4418748;28;657508;-71
2023/05/15 04:59:04;;;;;;;4.73;3.40;;;12.60;99.90;;;;;;4444923;28;658648;-70
2023/05/15 05:01:51;;;;;;;5.27;3.40;;;12.60;99.90;;;;;;4422065;28;657602;-71
2023/05/15 05:04:39;;;;;;;4.72;3.47;;;12.60;99.90;;;;;;4437447;28;658980;-71
2023/05/15 05:07:27;;;;;;;4.00;3.13;;;12.50;99.90;;;;;;4421863;28;658019;-71
2023/05/15 05:10:15;;;;;;;4.23;3.23;;;12.50;99.90;;;;;;4439867;28;657447;-72
2023/05/15 05:13:03;;;;;;;3.83;3.03;;;12.50;99.90;;;;;;4445929;28;658676;-71
2023/05/15 05:15:50;;;;;;;6.30;3.50;;;12.50;99.90;;;;;;4430739;28;657860;-72
2023/05/15 05:18:37;;;;;;;4.53;3.40;;;12.50;99.90;;;;;;4444083;28;657969;-71
2023/05/15 05:21:24;;;;;;;3.90;3.53;;;12.50;99.90;;;;;;4442957;28;657500;-70
2023/05/15 05:24:13;;;;;;;4.40;3.70;;;12.50;99.90;;;;;;4416104;28;657984;-71
2023/05/15 05:27:00;;;;;;;7.53;4.10;;;12.50;99.90;;;;;;4423152;28;657979;-71
2023/05/15 05:29:47;;;;;;;6.30;4.40;;;12.50;99.90;;;;;;4445292;28;658120;-71
2023/05/15 05:32:34;;;;;;;7.17;4.57;;;12.50;99.90;;;;;;4443797;28;657344;-71
2023/05/15 05:35:22;;;;;;;5.73;4.63;;;12.60;99.90;;;;;;4423245;28;658267;-71
2023/05/15 05:38:09;;;;;;;6.77;4.67;;;12.50;99.90;;;;;;4443079;28;658042;-71
2023/05/15 05:40:58;;;;;;;6.15;4.45;;;12.50;99.90;;;;;;4422460;28;657687;-73
2023/05/15 05:43:45;;;;;;;5.97;4.50;;;12.50;99.90;;;;;;4417120;28;657762;-72
2023/05/15 05:46:32;;;;;;;5.03;4.43;;;12.60;99.90;;;;;;4444156;28;658244;-73
2023/05/15 05:49:20;;;;;;;6.97;4.80;;;12.60;99.90;;;;;;4436900;28;657473;-72
2023/05/15 05:52:08;;;;;;;6.00;4.80;;;12.50;99.90;;;;;;4439724;28;658196;-73
2023/05/15 05:54:55;;;;;;;6.97;4.97;;;12.50;99.90;;;;;;4429428;28;658118;-71
2023/05/15 05:57:44;;;;;;;9.03;4.73;;;12.40;99.90;;;;;;4443415;28;658697;-72
2023/05/15 06:00:31;;;;;;;6.43;5.00;;;12.50;99.90;;;;;;4418095;28;657557;-73
2023/05/15 06:03:19;;;;;;;6.50;5.60;;;12.40;99.90;;;;;;4436765;28;659400;-74
2023/05/15 06:06:06;;;;;;;9.00;6.13;;;12.40;99.90;;;;;;4419648;28;657838;-73
2023/05/15 06:08:53;;;;;;;7.93;5.30;;;12.40;99.90;;;;;;4440760;28;659760;-72
2023/05/15 06:11:41;;;;;;;7.60;5.50;;;12.50;99.90;;;;;;4421865;28;657338;-72
2023/05/15 06:14:30;;;;;;;8.73;5.37;;;12.70;99.90;;;;;;4444001;28;659167;-73
2023/05/15 06:17:17;;;;;;;7.43;6.10;;;12.80;99.90;;;;;;4421570;28;659327;-74
2023/05/15 06:20:05;;;;;;;12.17;6.67;;;12.90;99.90;;;;;;4444502;28;656985;-73
2023/05/15 06:22:53;;;;;;;17.63;8.27;;;13.10;99.90;;;;;;4419225;28;659565;-74
2023/05/15 06:25:41;;;;;;;13.63;7.27;;;13.30;99.90;;;;;;4420150;28;658538;-72
2023/05/15 06:28:28;;;;;;;10.20;6.10;;;13.30;99.90;;;;;;4446726;28;659149;-73
2023/05/15 06:31:17;;;;;;;7.40;5.67;;;13.60;99.90;;;;;;4424910;28;658912;-72
2023/05/15 06:34:05;;;;;;;7.23;5.23;;;13.70;99.90;;;;;;4448237;28;658955;-73
2023/05/15 06:36:52;;;;;;;7.93;5.57;;;13.80;99.90;;;;;;4419384;28;659722;-73
2023/05/15 06:39:39;;;;;;;8.03;5.37;;;13.90;99.90;;;;;;4432292;28;657751;-73
2023/05/15 06:42:27;;;;;;;7.57;5.30;;;14.10;99.90;;;;;;4424939;28;658526;-73
2023/05/15 06:45:14;;;;;;;6.80;5.80;;;14.30;99.90;;;;;;4447507;28;657471;-73
2023/05/15 06:48:02;;;;;;;6.57;5.57;;;14.40;99.90;;;;;;4411364;28;657858;-73
2023/05/15 06:50:51;;;;;;;6.07;5.00;;;14.40;99.90;;;;;;4439405;28;657673;-71
2023/05/15 06:53:38;;;;;;;5.90;5.23;;;14.60;99.90;;;;;;4443622;28;658724;-73
2023/05/15 06:56:25;;;;;;;6.30;4.57;;;14.80;99.90;;;;;;4422265;28;657207;-71
2023/05/15 06:59:13;;;;;;;6.03;4.63;;;14.90;99.90;;;;;;4439966;28;658339;-72
2023/05/15 07:02:00;;;;;;;5.53;4.50;;;15.00;99.90;;;;;;4435193;28;658360;-71
2023/05/15 07:04:49;;;;;;;5.80;5.20;;;15.00;99.90;;;;;;4439855;28;659043;-73
2023/05/15 07:07:36;;;;;;;9.20;5.30;;;14.90;99.90;;;;;;4418792;28;657818;-72
2023/05/15 07:10:23;;;;;;;7.10;5.63;;;14.80;99.90;;;;;;4446867;28;658779;-73
2023/05/15 07:13:10;;;;;;;6.87;4.97;;;14.70;99.90;;;;;;4423299;28;658119;-72
2023/05/15 07:15:57;;;;;;;13.03;5.30;;;14.70;99.90;;;;;;4440608;28;658569;-73
2023/05/15 07:18:45;;;;;;;6.10;4.90;;;14.70;99.90;;;;;;4438049;28;659193;-72
2023/05/15 07:21:34;;;;;;;5.53;4.87;;;14.70;99.90;;;;;;4427447;28;658789;-73
2023/05/15 07:24:21;;;;;;;6.20;4.50;;;14.60;99.90;;;;;;4405344;28;657719;-73
2023/05/15 07:27:09;;;;;;;6.87;5.00;;;14.50;99.90;;;;;;4424220;28;657917;-73
2023/05/15 07:29:56;;;;;;;6.50;5.43;;;14.50;99.90;;;;;;4403752;28;658137;-72
2023/05/15 07:32:43;;;;;;;7.70;5.70;;;14.50;99.90;;;;;;4426373;28;658166;-73
2023/05/15 07:35:30;;;;;;;8.10;5.40;;;14.50;99.90;;;;;;4404429;28;657821;-72
2023/05/15 07:38:19;;;;;;;8.20;5.47;;;14.40;99.90;;;;;;4428601;28;658060;-72
2023/05/15 07:41:06;;;;;;;8.90;5.30;;;14.30;99.90;;;;;;4400937;28;657618;-72
2023/05/15 07:43:53;;;;;;;7.83;4.70;;;14.40;99.90;;;;;;4433978;28;658167;-73
2023/05/15 07:46:40;;;;;;;7.40;5.30;;;14.50;99.90;;;;;;4404288;28;657802;-72
2023/05/15 07:49:27;;;;;;;6.57;4.90;;;14.40;99.90;;;;;;4424161;28;658428;-73
2023/05/15 07:52:15;;;;;;;7.00;4.87;;;14.50;99.90;;;;;;4424246;28;657703;-71
2023/05/15 07:55:04;;;;;;;7.40;5.20;;;14.50;99.90;;;;;;4320043;28;657565;-71
2023/05/15 07:57:52;;;;;;;6.10;5.30;;;14.50;99.90;;;;;;4262593;28;658531;-72
2023/05/15 08:00:39;;;;;;;10.53;5.47;;;14.50;99.90;;;;;;4283848;28;657634;-72
2023/05/15 08:03:26;;;;;;;7.70;5.67;;;14.50;99.90;;;;;;4334290;28;659360;-73
2023/05/15 08:06:13;;;;;;;8.30;5.60;;;14.50;99.90;;;;;;4424437;28;659602;-73
2023/05/15 08:09:01;;;;;;;10.23;5.23;;;14.50;99.90;;;;;;4405830;28;657846;-72
2023/05/15 08:11:49;;;;;;;6.50;5.00;;;14.60;99.90;;;;;;4420740;28;659041;-72
2023/05/15 08:14:37;;;;;;;6.80;5.00;;;14.70;99.90;;;;;;4406178;28;657520;-73
2023/05/15 08:17:24;;;;;;;6.83;4.67;;;14.70;99.90;;;;;;4424592;28;658112;-72
2023/05/15 08:20:13;;;;;;;7.13;4.97;;;14.80;99.90;;;;;;4401582;28;658387;-73
2023/05/15 08:23:00;;;;;;;7.13;4.40;;;14.80;99.90;;;;;;4419050;28;658057;-72
2023/05/15 08:25:47;;;;;;;6.73;4.57;;;14.80;99.90;;;;;;4426561;28;658469;-73
2023/05/15 08:28:37;;;;;;;5.97;4.73;;;14.90;99.90;;;;;;4424605;28;658065;-71
2023/05/15 08:31:24;;;;;;;8.37;4.97;;;14.90;99.90;;;;;;4424849;28;657754;-73
2023/05/15 08:34:11;;;;;;;6.32;4.25;;;14.90;99.90;;;;;;4408620;28;657870;-73
2023/05/15 08:36:58;;;;;;;5.20;3.97;;;14.80;99.90;;;;;;4430852;28;658299;-73
2023/05/15 08:39:46;;;;;;;5.57;4.10;;;15.00;99.90;;;;;;4406822;28;657729;-72
2023/05/15 08:42:35;;;;;;;5.83;4.53;;;15.10;99.90;;;;;;4431166;28;658536;-72
2023/05/15 08:45:24;;;;;;;7.63;4.00;;;15.20;99.90;;;;;;4405377;28;659476;-73
2023/05/15 08:48:12;;;;;;;8.67;4.53;;;15.30;99.90;;;;;;4408629;28;657634;-73
2023/05/15 08:51:00;;;;;;;7.87;4.70;;;15.40;99.90;;;;;;4429000;28;657815;-72
2023/05/15 08:53:47;;;;;;;5.80;4.43;;;15.50;99.90;;;;;;4405076;28;658757;-73
2023/05/15 08:56:34;;;;;;;8.17;4.40;;;15.50;99.90;;;;;;4429985;28;657204;-73
2023/05/15 08:59:22;;;;;;;7.73;3.77;;;15.50;99.90;;;;;;4407040;28;657507;-73
2023/05/15 09:02:10;;;;;;;5.03;4.00;;;15.30;99.90;;;;;;4423930;28;657772;-73
2023/05/15 09:04:57;;;;;;;4.50;3.90;;;15.30;99.90;;;;;;4407555;28;658218;-73
2023/05/15 09:07:45;;;;;;;6.37;3.73;;;15.40;99.90;;;;;;4424702;28;658220;-73
2023/05/15 09:10:33;;;;;;;4.13;3.00;;;15.50;99.90;;;;;;4428338;28;659358;-73
2023/05/15 09:13:20;;;;;;;4.53;3.20;;;15.30;99.90;;;;;;4402168;28;657790;-71
2023/05/15 09:16:07;;;;;;;5.80;3.17;;;15.10;99.90;;;;;;4432019;28;659437;-72
2023/05/15 09:18:57;;;;;;;5.53;3.30;;;15.10;99.90;;;;;;4422370;28;657571;-72
2023/05/15 09:21:44;;;;;;;3.50;2.90;;;14.90;99.90;;;;;;4415600;28;657939;-73
2023/05/15 09:24:31;;;;;;;7.30;3.30;;;14.80;99.90;;;;;;4393170;28;657735;-73
2023/05/15 09:27:18;;;;;;;3.30;3.00;;;14.70;99.90;;;;;;4407904;28;659212;-72
2023/05/15 09:30:09;;;;;;;5.23;2.80;;;14.70;99.90;;;;;;4389120;28;657417;-72
2023/05/15 09:32:56;;;;;;;6.93;2.80;;;14.90;99.90;;;;;;4396036;28;657845;-73
2023/05/15 09:35:45;;;;;;;3.80;2.70;;;15.00;99.90;;;;;;4415145;28;657863;-73
2023/05/15 09:38:32;;;;;;;4.20;3.10;;;15.10;99.90;;;;;;4377268;28;658451;-73
2023/05/15 09:41:24;;;;;;;3.63;2.77;;;15.10;99.90;;;;;;4413200;28;656781;-73
2023/05/15 09:44:25;;;;;;;3.10;2.80;;;15.20;99.90;;;;;;4355189;28;659489;-73
2023/05/15 09:47:13;;;;;;;3.57;2.80;;;15.20;99.90;;;;;;4384852;28;658343;-73
2023/05/15 09:50:00;;;;;;;3.17;2.63;;;15.00;99.90;;;;;;4395081;28;657597;-72
2023/05/15 09:52:49;;;;;;;4.20;2.80;;;15.00;99.90;;;;;;4398110;28;658616;-72
2023/05/15 09:55:36;;;;;;;4.23;2.70;;;14.90;99.90;;;;;;4397585;28;657957;-73
2023/05/15 09:58:24;;;;;;;3.87;2.63;;;15.00;99.90;;;;;;4408984;28;659004;-72
2023/05/15 10:01:12;;;;;;;3.13;2.57;;;14.80;99.90;;;;;;4384161;28;658196;-73
2023/05/15 10:03:59;;;;;;;5.13;2.80;;;14.90;99.90;;;;;;4405301;28;658242;-73
2023/05/15 10:06:47;;;;;;;3.53;2.77;;;15.00;99.90;;;;;;4383386;28;658090;-72
2023/05/15 10:09:36;;;;;;;3.67;2.80;;;15.10;99.90;;;;;;4412466;28;658171;-72
2023/05/15 10:12:25;;;;;;;6.97;2.90;;;15.20;99.90;;;;;;4411678;28;657734;-73
2023/05/15 10:15:12;;;;;;;2.97;2.30;;;15.30;99.90;;;;;;4389518;28;658559;-73
2023/05/15 10:18:00;;;;;;;3.00;2.40;;;15.40;99.90;;;;;;4408344;28;658162;-72
2023/05/15 10:20:47;;;;;;;3.27;2.40;;;15.40;99.90;;;;;;4404300;28;659335;-74
2023/05/15 10:23:35;;;;;;;3.03;2.57;;;15.40;99.90;;;;;;4424078;28;658116;-74
2023/05/15 10:26:24;;;;;;;3.57;2.70;;;15.50;99.90;;;;;;4395781;28;658743;-73
2023/05/15 10:29:12;;;;;;;4.03;3.00;;;15.60;99.90;;;;;;4407944;28;657627;-73
2023/05/15 10:31:59;;;;;;;3.80;2.70;;;15.70;99.90;;;;;;4424977;28;658002;-73
2023/05/15 10:34:47;;;;;;;3.00;2.57;;;15.70;99.90;;;;;;4404313;28;657653;-73
2023/05/15 10:37:34;;;;;;;4.97;2.90;;;15.70;99.90;;;;;;4423473;28;657436;-74
2023/05/15 10:40:21;;;;;;;2.97;2.67;;;15.70;99.90;;;;;;4405293;28;657891;-73
2023/05/15 10:43:10;;;;;;;4.73;2.57;;;15.60;99.90;;;;;;4425781;28;659052;-73
2023/05/15 10:45:57;;;;;;;4.73;3.00;;;15.20;99.90;;;;;;4406897;28;658428;-72
2023/05/15 10:48:44;;;;;;;4.23;2.70;;;15.00;99.90;;;;;;4425651;28;657804;-73
2023/05/15 10:51:32;;;;;;;3.97;2.90;;;15.00;99.90;;;;;;4404762;28;657214;-73
2023/05/15 10:54:19;;;;;;;3.87;3.10;;;14.90;99.90;;;;;;4418391;28;658220;-73
2023/05/15 10:57:06;;;;;;;4.63;3.03;;;14.90;99.90;;;;;;4402586;28;657823;-73
2023/05/15 10:59:55;;;;;;;3.40;2.93;;;15.20;99.90;;;;;;4424202;28;658355;-75
2023/05/15 11:02:42;;;;;;;7.20;3.00;;;15.20;99.90;;;;;;4402013;28;659230;-75
2023/05/15 11:05:30;;;;;;;3.17;2.60;;;15.40;99.90;;;;;;4422349;28;658213;-76
2023/05/15 11:08:26;;;;;;;3.70;2.50;;;15.70;99.90;;;;;;4407431;28;658903;-76
2023/05/15 11:11:43;;;;;;;3.00;2.70;;;16.20;99.90;;;;;;4402822;28;658098;-72
2023/05/15 11:14:30;;;;;;;2.97;2.67;;;16.50;99.90;;;;;;4386374;28;658102;-72
2023/05/15 11:17:19;;;;;;;2.63;2.40;;;16.90;99.90;;;;;;4424762;28;658470;-73
2023/05/15 11:20:07;;;;;;;3.13;2.20;;;17.10;99.90;;;;;;4410332;28;657995;-73
2023/05/15 11:22:58;;;;;;;3.97;2.87;;;17.10;99.90;;;;;;4437527;28;657512;-75
2023/05/15 11:25:45;;;;;;;3.70;1.97;;;17.30;99.90;;;;;;4392405;28;658105;-74
2023/05/15 11:28:42;;;;;;;2.50;2.30;;;17.30;99.90;;;;;;4439937;28;658756;-74
2023/05/15 11:31:30;;;;;;;2.60;2.10;;;17.50;99.90;;;;;;4422013;28;657960;-73
2023/05/15 11:34:28;;;;;;;2.50;2.10;;;17.70;99.90;;;;;;4419628;28;658371;-72
2023/05/15 11:37:17;;;;;;;3.93;2.17;;;17.80;99.90;;;;;;4398721;28;657895;-73
2023/05/15 11:40:07;;;;;;;3.87;2.20;;;17.30;99.90;;;;;;4423417;28;657720;-71
2023/05/15 11:43:07;;;;;;;2.20;2.00;;;17.80;99.90;;;;;;4433271;28;658565;-73
2023/05/15 11:45:56;;;;;;;3.40;2.73;;;18.20;99.90;;;;;;4413361;28;658441;-73
2023/05/15 11:48:46;;;;;;;5.13;2.50;;;19.20;99.90;;;;;;4415239;28;658636;-72
2023/05/15 11:51:35;;;;;;;2.00;1.70;;;19.80;99.90;;;;;;4414350;28;658739;-72
2023/05/15 11:54:22;;;;;;;2.83;2.00;;;19.20;99.90;;;;;;4415724;28;659284;-73
2023/05/15 11:57:09;;;;;;;2.30;2.07;;;18.90;99.90;;;;;;4439838;28;657561;-73
2023/05/15 11:59:56;;;;;;;3.00;1.90;;;19.00;99.90;;;;;;4415199;28;661485;-73
2023/05/15 12:02:44;;;;;;;2.57;2.27;;;19.00;99.90;;;;;;4440029;28;658826;-72
2023/05/15 12:05:31;;;;;;;5.30;1.80;;;19.30;99.90;;;;;;4420017;28;657393;-73
2023/05/15 12:08:20;;;;;;;2.30;1.80;;;19.40;99.90;;;;;;4440952;28;658497;-72
2023/05/15 12:11:07;;;;;;;2.33;1.93;;;19.40;99.90;;;;;;4418468;28;658562;-74
2023/05/15 12:13:54;;;;;;;7.53;1.87;;;19.30;99.90;;;;;;4438742;28;657691;-75
2023/05/15 12:16:41;;;;;;;3.33;2.10;;;19.40;99.90;;;;;;4420177;28;657333;-75
2023/05/15 12:19:29;;;;;;;4.03;1.93;;;19.30;99.90;;;;;;4441804;28;657871;-75
2023/05/15 12:22:17;;;;;;;3.23;1.97;;;19.00;99.90;;;;;;4423657;28;658750;-75
2023/05/15 12:25:07;;;;;;;2.70;1.70;;;19.00;99.90;;;;;;4442434;28;657126;-74
2023/05/15 12:27:54;;;;;;;3.87;2.03;;;19.00;99.90;;;;;;4416740;28;658253;-74
2023/05/15 12:30:42;;;;;;;3.30;2.47;;;18.40;99.90;;;;;;4421475;28;657855;-74
2023/05/15 12:33:29;;;;;;;3.13;2.10;;;18.60;99.90;;;;;;4440129;28;657468;-73
2023/05/15 12:36:16;;;;;;;6.10;2.17;;;18.70;99.90;;;;;;4423134;28;657740;-73
2023/05/15 12:39:06;;;;;;;4.33;2.13;;;19.30;99.90;;;;;;4438930;28;657949;-72
2023/05/15 12:41:57;;;;;;;2.40;2.20;;;19.70;99.90;;;;;;4416646;28;658651;-73
2023/05/15 12:44:44;;;;;;;4.67;2.20;;;19.60;99.90;;;;;;4412927;28;657857;-72
2023/05/15 12:47:31;;;;;;;3.23;2.10;;;19.30;99.90;;;;;;4414031;28;658533;-73
2023/05/15 12:50:19;;;;;;;2.80;2.10;;;19.30;99.90;;;;;;4439865;28;658295;-74
2023/05/15 12:53:06;;;;;;;2.60;2.10;;;19.30;99.90;;;;;;4422314;28;658378;-74
2023/05/15 12:55:54;;;;;;;5.30;2.33;;;18.80;99.90;;;;;;4439940;28;658114;-74
2023/05/15 12:58:42;;;;;;;3.63;2.33;;;18.30;99.90;;;;;;4419112;28;657581;-73
2023/05/15 13:01:29;;;;;;;6.27;2.30;;;17.90;99.90;;;;;;4434876;28;657775;-73
2023/05/15 13:04:17;;;;;;;4.17;2.10;;;17.60;99.90;;;;;;4418597;28;657541;-75
2023/05/15 13:07:04;;;;;;;2.67;2.27;;;17.40;99.90;;;;;;4436853;28;658516;-75
2023/05/15 13:10:02;;;;;;;5.80;2.90;;;17.10;99.90;;;;;;4417439;28;657553;-75
2023/05/15 13:12:50;;;;;;;5.43;3.80;;;16.70;99.90;;;;;;4413124;28;657256;-77
2023/05/15 13:15:39;;;;;;;9.20;3.80;;;16.00;99.90;;;;;;4420059;28;658029;-73
2023/05/15 13:18:27;;;;;;;9.27;3.80;;;15.50;99.90;;;;;;4417335;28;657918;-75
2023/05/15 13:21:14;;;;;;;6.43;3.20;;;15.50;99.90;;;;;;4435562;28;657370;-73
2023/05/15 13:24:01;;;;;;;5.27;2.60;;;15.80;99.90;;;;;;4422574;28;658126;-74
2023/05/15 13:26:48;;;;;;;11.33;3.40;;;16.30;99.90;;;;;;4439940;28;658871;-74
2023/05/15 13:29:35;;;;;;;8.47;3.70;;;16.90;99.90;;;;;;4418447;28;658765;-73
2023/05/15 13:32:24;;;;;;;4.60;3.60;;;17.50;99.90;;;;;;4443408;28;658178;-74
2023/05/15 13:35:11;;;;;;;4.03;3.53;;;18.00;99.90;;;;;;4417760;28;657449;-72
2023/05/15 13:37:58;;;;;;;4.77;3.60;;;18.50;99.90;;;;;;4439138;28;659048;-74
2023/05/15 13:40:46;;;;;;;5.37;3.63;;;18.60;99.90;;;;;;4418007;28;657428;-74
2023/05/15 13:43:33;;;;;;;7.23;3.60;;;18.30;99.90;;;;;;4444537;28;659420;-76
2023/05/15 13:46:20;;;;;;;4.67;3.30;;;17.90;99.90;;;;;;4417205;28;657677;-73
2023/05/15 13:49:10;;;;;;;5.27;3.50;;;17.40;99.90;;;;;;4446619;28;658184;-76
2023/05/15 13:51:57;;;;;;;10.93;3.60;;;16.80;99.90;;;;;;4419967;28;658723;-74
2023/05/15 13:54:44;;;;;;;5.20;3.20;;;17.20;99.90;;;;;;4399175;28;658699;-72
2023/05/15 13:57:32;;;;;;;6.60;3.30;;;17.20;99.90;;;;;;4279899;28;657505;-72
2023/05/15 14:00:20;;;;;;;2.90;2.60;;;17.90;99.90;;;;;;4299081;28;657433;-72
2023/05/15 14:03:07;;;;;;;2.77;2.30;;;17.80;99.90;;;;;;4302101;28;657796;-76
2023/05/15 14:05:55;;;;;;;7.30;3.27;;;17.40;99.90;;;;;;4438247;28;657380;-77
2023/05/15 14:08:43;;;;;;;3.67;2.57;;;17.40;99.90;;;;;;4418346;28;658616;-76
2023/05/15 14:11:30;;;;;;;6.10;2.50;;;17.30;99.90;;;;;;4414861;28;657838;-74
2023/05/15 14:14:17;;;;;;;2.77;2.30;;;17.40;99.90;;;;;;4446944;28;657889;-77
2023/05/15 14:17:05;;;;;;;2.37;2.00;;;17.00;99.90;;;;;;4442290;28;658137;-76
2023/05/15 14:19:52;;;;;;;4.97;2.17;;;16.70;99.90;;;;;;4412924;28;658435;-73
2023/05/15 14:22:41;;;;;;;2.10;1.90;;;16.80;99.90;;;;;;4436799;28;657466;-76